sensor_id;sensor_type;location;lat;lon;timestamp;P1;P2;P0
46591;PMS6003;32314;48.748;9.656;2022-09-09T00:01:28;2.00;0.00;0.00
46591;PMS6003;32314;48.748;9.656;2022-09-09T00:04:29;1.00;1.00;1.00
46591;PMS6003;32314;48.748;9.656;2022-09-09T00:07:18;1.50;1.50;1.00
46591;PMS6003;32314;48.748;9.656;2022-09-09T00:10:13;1.75;1.00;1.00
46591;PMS6003;32314;48.748;9.656;2022-09-09T00:13:19;1.00;1.00;1.00
46591;PMS6003;32314;48.748;9.656;2022-09-09T00:19:06;0.75;0.75;0.75
46591;PMS6003;32314;48.748;9.656;2022-09-09T00:24:53;3.00;2.00;1.00
46591;PMS6003;32314;48.748;9.656;2022-09-09T00:27:46;2.00;2.00;2.00
46591;PMS6003;32314;48.748;9.656;2022-09-09T00:30:34;2.00;2.00;1.00
46591;PMS6003;32314;48.748;9.656;2022-09-09T00:33:22;1.75;1.75;1.50
46591;PMS6003;32314;48.748;9.656;2022-09-09T00:36:12;1.00;1.00;1.00
46591;PMS6003;32314;48.748;9.656;2022-09-09T00:39:01;3.00;1.00;1.00
46591;PMS6003;32314;48.748;9.656;2022-09-09T00:41:58;2.00;2.00;2.00
46591;PMS6003;32314;48.748;9.656;2022-09-09T00:45:09;1.00;1.00;1.00
46591;PMS6003;32314;48.748;9.656;2022-09-09T00:48:07;2.25;2.25;1.50
46591;PMS6003;32314;48.748;9.656;2022-09-09T00:54:33;1.00;1.00;0.50
46591;PMS6003;32314;48.748;9.656;2022-09-09T00:57:42;0.00;0.00;0.00
46591;PMS6003;32314;48.748;9.656;2022-09-09T01:01:07;0.00;0.00;0.00
46591;PMS6003;32314;48.748;9.656;2022-09-09T01:03:58;0.00;0.00;0.00
46591;PMS6003;32314;48.748;9.656;2022-09-09T01:06:57;0.00;0.00;0.00
46591;PMS6003;32314;48.748;9.656;2022-09-09T01:10:03;0.25;0.00;0.00
46591;PMS6003;32314;48.748;9.656;2022-09-09T01:12:56;1.00;1.00;1.00
46591;PMS6003;32314;48.748;9.656;2022-09-09T01:15:48;0.25;0.25;0.25
46591;PMS6003;32314;48.748;9.656;2022-09-09T01:18:46;2.00;2.00;2.00
46591;PMS6003;32314;48.748;9.656;2022-09-09T01:21:43;0.00;0.00;0.00
46591;PMS6003;32314;48.748;9.656;2022-09-09T01:28:37;0.50;0.50;0.00
46591;PMS6003;32314;48.748;9.656;2022-09-09T01:34:48;0.00;0.00;0.00
46591;PMS6003;32314;48.748;9.656;2022-09-09T01:40:54;0.00;0.00;0.00
46591;PMS6003;32314;48.748;9.656;2022-09-09T01:43:56;0.00;0.00;0.00
46591;PMS6003;32314;48.748;9.656;2022-09-09T01:46:55;2.00;2.00;1.50
46591;PMS6003;32314;48.748;9.656;2022-09-09T01:49:42;0.00;0.00;0.00
46591;PMS6003;32314;48.748;9.656;2022-09-09T02:01:51;1.00;1.00;1.00
46591;PMS6003;32314;48.748;9.656;2022-09-09T02:04:54;1.00;1.00;1.00
46591;PMS6003;32314;48.748;9.656;2022-09-09T02:07:53;2.00;1.00;1.00
46591;PMS6003;32314;48.748;9.656;2022-09-09T02:11:21;3.00;0.00;0.00
46591;PMS6003;32314;48.748;9.656;2022-09-09T02:14:30;0.00;0.00;0.00
46591;PMS6003;32314;48.748;9.656;2022-09-09T02:17:24;0.75;0.75;0.00
46591;PMS6003;32314;48.748;9.656;2022-09-09T02:20:25;0.00;0.00;0.00
46591;PMS6003;32314;48.748;9.656;2022-09-09T02:23:17;0.00;0.00;0.00
46591;PMS6003;32314;48.748;9.656;2022-09-09T02:26:11;0.00;0.00;0.00
46591;PMS6003;32314;48.748;9.656;2022-09-09T02:29:04;0.00;0.00;0.00
46591;PMS6003;32314;48.748;9.656;2022-09-09T02:31:53;1.00;1.00;1.00
46591;PMS6003;32314;48.748;9.656;2022-09-09T02:34:48;1.00;1.00;1.00
46591;PMS6003;32314;48.748;9.656;2022-09-09T02:37:38;1.00;1.00;1.00
46591;PMS6003;32314;48.748;9.656;2022-09-09T02:40:25;2.00;2.00;1.25
46591;PMS6003;32314;48.748;9.656;2022-09-09T02:43:18;1.25;1.25;1.25
46591;PMS6003;32314;48.748;9.656;2022-09-09T02:46:40;2.00;2.00;1.75
46591;PMS6003;32314;48.748;9.656;2022-09-09T02:49:24;1.00;1.00;1.00
46591;PMS6003;32314;48.748;9.656;2022-09-09T02:58:29;1.25;1.25;1.00
46591;PMS6003;32314;48.748;9.656;2022-09-09T03:01:21;2.00;2.00;1.00
46591;PMS6003;32314;48.748;9.656;2022-09-09T03:04:07;1.00;1.00;1.00
46591;PMS6003;32314;48.748;9.656;2022-09-09T03:06:53;1.00;1.00;1.00
46591;PMS6003;32314;48.748;9.656;2022-09-09T03:09:40;2.00;2.00;2.00
46591;PMS6003;32314;48.748;9.656;2022-09-09T03:12:26;1.00;1.00;1.00
46591;PMS6003;32314;48.748;9.656;2022-09-09T03:15:12;1.50;1.00;1.00
46591;PMS6003;32314;48.748;9.656;2022-09-09T03:18:00;2.00;2.00;1.50
46591;PMS6003;32314;48.748;9.656;2022-09-09T03:20:48;1.75;1.75;1.50
46591;PMS6003;32314;48.748;9.656;2022-09-09T03:24:01;1.50;1.50;1.50
46591;PMS6003;32314;48.748;9.656;2022-09-09T03:26:57;2.25;2.25;1.50
46591;PMS6003;32314;48.748;9.656;2022-09-09T03:29:46;2.50;2.50;2.50
46591;PMS6003;32314;48.748;9.656;2022-09-09T03:32:44;2.00;2.00;2.00
46591;PMS6003;32314;48.748;9.656;2022-09-09T03:35:36;0.00;0.00;0.00
46591;PMS6003;32314;48.748;9.656;2022-09-09T03:38:23;1.50;0.00;0.00
46591;PMS6003;32314;48.748;9.656;2022-09-09T03:41:21;0.75;0.75;0.75
46591;PMS6003;32314;48.748;9.656;2022-09-09T03:44:14;1.25;1.25;1.25
46591;PMS6003;32314;48.748;9.656;2022-09-09T03:47:10;1.00;1.00;1.00
46591;PMS6003;32314;48.748;9.656;2022-09-09T03:50:10;2.25;0.25;0.00
46591;PMS6003;32314;48.748;9.656;2022-09-09T03:53:04;1.00;1.00;1.00
46591;PMS6003;32314;48.748;9.656;2022-09-09T03:55:54;1.50;1.50;1.50
46591;PMS6003;32314;48.748;9.656;2022-09-09T03:58:44;1.75;1.75;1.00
46591;PMS6003;32314;48.748;9.656;2022-09-09T04:01:31;0.75;0.75;0.00
46591;PMS6003;32314;48.748;9.656;2022-09-09T04:04:20;0.00;0.00;0.00
46591;PMS6003;32314;48.748;9.656;2022-09-09T04:07:18;2.00;1.00;1.00
46591;PMS6003;32314;48.748;9.656;2022-09-09T04:10:16;0.00;0.00;0.00
46591;PMS6003;32314;48.748;9.656;2022-09-09T04:13:21;0.50;0.50;0.00
46591;PMS6003;32314;48.748;9.656;2022-09-09T04:16:09;0.00;0.00;0.00
46591;PMS6003;32314;48.748;9.656;2022-09-09T04:19:00;1.50;1.00;0.25
46591;PMS6003;32314;48.748;9.656;2022-09-09T04:22:18;0.75;0.00;0.00
46591;PMS6003;32314;48.748;9.656;2022-09-09T04:25:14;0.00;0.00;0.00
46591;PMS6003;32314;48.748;9.656;2022-09-09T04:28:28;3.00;0.75;0.25
46591;PMS6003;32314;48.748;9.656;2022-09-09T04:31:52;0.00;0.00;0.00
46591;PMS6003;32314;48.748;9.656;2022-09-09T04:34:52;0.00;0.00;0.00
46591;PMS6003;32314;48.748;9.656;2022-09-09T04:48:41;0.00;0.00;0.00
46591;PMS6003;32314;48.748;9.656;2022-09-09T04:51:53;1.00;0.00;0.00
46591;PMS6003;32314;48.748;9.656;2022-09-09T04:55:05;0.50;0.50;0.50
46591;PMS6003;32314;48.748;9.656;2022-09-09T04:58:46;0.00;0.00;0.00
46591;PMS6003;32314;48.748;9.656;2022-09-09T05:01:47;1.00;1.00;1.00
46591;PMS6003;32314;48.748;9.656;2022-09-09T05:04:44;0.00;0.00;0.00
46591;PMS6003;32314;48.748;9.656;2022-09-09T05:14:32;0.00;0.00;0.00
46591;PMS6003;32314;48.748;9.656;2022-09-09T05:21:16;0.50;0.50;0.00
46591;PMS6003;32314;48.748;9.656;2022-09-09T05:25:00;2.50;2.50;2.00
46591;PMS6003;32314;48.748;9.656;2022-09-09T05:28:15;2.50;2.50;2.25
46591;PMS6003;32314;48.748;9.656;2022-09-09T05:31:38;2.00;2.00;1.50
46591;PMS6003;32314;48.748;9.656;2022-09-09T05:34:40;3.50;2.00;2.00
46591;PMS6003;32314;48.748;9.656;2022-09-09T05:37:26;2.00;2.00;2.00
46591;PMS6003;32314;48.748;9.656;2022-09-09T05:40:15;2.00;2.00;2.00
46591;PMS6003;32314;48.748;9.656;2022-09-09T05:43:29;2.00;2.00;2.00
46591;PMS6003;32314;48.748;9.656;2022-09-09T05:46:20;2.00;2.00;1.25
46591;PMS6003;32314;48.748;9.656;2022-09-09T05:49:24;2.25;0.50;0.50
46591;PMS6003;32314;48.748;9.656;2022-09-09T05:52:13;0.00;0.00;0.00
46591;PMS6003;32314;48.748;9.656;2022-09-09T05:55:04;0.00;0.00;0.00
46591;PMS6003;32314;48.748;9.656;2022-09-09T05:58:01;0.25;0.25;0.00
46591;PMS6003;32314;48.748;9.656;2022-09-09T06:00:48;2.00;2.00;2.00
46591;PMS6003;32314;48.748;9.656;2022-09-09T06:03:57;3.00;3.00;2.50
46591;PMS6003;32314;48.748;9.656;2022-09-09T06:06:52;4.50;3.00;2.50
46591;PMS6003;32314;48.748;9.656;2022-09-09T06:10:28;2.00;2.00;2.00
46591;PMS6003;32314;48.748;9.656;2022-09-09T06:13:31;3.00;3.00;3.00
46591;PMS6003;32314;48.748;9.656;2022-09-09T06:20:08;2.50;2.50;2.00
46591;PMS6003;32314;48.748;9.656;2022-09-09T06:23:35;2.75;2.75;2.00
46591;PMS6003;32314;48.748;9.656;2022-09-09T06:26:44;4.50;2.50;2.25
46591;PMS6003;32314;48.748;9.656;2022-09-09T06:36:59;3.25;3.25;3.00
46591;PMS6003;32314;48.748;9.656;2022-09-09T06:40:42;2.50;2.50;2.50
46591;PMS6003;32314;48.748;9.656;2022-09-09T06:44:23;4.00;4.00;4.00
46591;PMS6003;32314;48.748;9.656;2022-09-09T06:47:35;5.00;3.25;3.00
46591;PMS6003;32314;48.748;9.656;2022-09-09T06:53:58;3.00;3.00;3.00
46591;PMS6003;32314;48.748;9.656;2022-09-09T06:57:22;3.75;3.50;3.00
46591;PMS6003;32314;48.748;9.656;2022-09-09T07:00:21;4.00;2.00;2.00
46591;PMS6003;32314;48.748;9.656;2022-09-09T07:03:34;2.00;2.00;2.00
46591;PMS6003;32314;48.748;9.656;2022-09-09T07:11:05;5.00;3.50;2.75
46591;PMS6003;32314;48.748;9.656;2022-09-09T07:14:27;3.00;2.25;2.00
46591;PMS6003;32314;48.748;9.656;2022-09-09T07:17:36;1.25;1.25;1.25
46591;PMS6003;32314;48.748;9.656;2022-09-09T07:20:39;2.25;2.00;2.00
46591;PMS6003;32314;48.748;9.656;2022-09-09T07:24:44;1.00;1.00;1.00
46591;PMS6003;32314;48.748;9.656;2022-09-09T07:28:31;3.00;3.00;2.75
46591;PMS6003;32314;48.748;9.656;2022-09-09T07:31:18;2.75;1.50;1.25
46591;PMS6003;32314;48.748;9.656;2022-09-09T07:34:21;2.00;2.00;2.00
46591;PMS6003;32314;48.748;9.656;2022-09-09T07:37:07;1.50;1.50;1.25
46591;PMS6003;32314;48.748;9.656;2022-09-09T07:40:13;1.00;1.00;1.00
46591;PMS6003;32314;48.748;9.656;2022-09-09T07:43:47;1.00;1.00;1.00
46591;PMS6003;32314;48.748;9.656;2022-09-09T07:46:53;1.00;1.00;1.00
46591;PMS6003;32314;48.748;9.656;2022-09-09T07:49:48;2.00;2.00;2.00
46591;PMS6003;32314;48.748;9.656;2022-09-09T07:52:42;2.00;2.00;2.00
46591;PMS6003;32314;48.748;9.656;2022-09-09T07:59:13;1.00;1.00;1.00
46591;PMS6003;32314;48.748;9.656;2022-09-09T08:02:29;2.00;2.00;1.50
46591;PMS6003;32314;48.748;9.656;2022-09-09T08:05:21;2.25;2.25;2.25
46591;PMS6003;32314;48.748;9.656;2022-09-09T08:08:33;2.50;2.00;1.75
46591;PMS6003;32314;48.748;9.656;2022-09-09T08:11:35;1.00;1.00;1.00
46591;PMS6003;32314;48.748;9.656;2022-09-09T08:14:22;3.25;2.00;2.00
46591;PMS6003;32314;48.748;9.656;2022-09-09T08:17:09;2.25;2.25;2.00
46591;PMS6003;32314;48.748;9.656;2022-09-09T08:19:56;1.75;1.00;1.00
46591;PMS6003;32314;48.748;9.656;2022-09-09T08:22:46;2.00;2.00;2.00
46591;PMS6003;32314;48.748;9.656;2022-09-09T08:25:32;2.00;2.00;2.00
46591;PMS6003;32314;48.748;9.656;2022-09-09T08:28:19;1.25;1.25;1.00
46591;PMS6003;32314;48.748;9.656;2022-09-09T08:33:56;2.00;2.00;1.00
46591;PMS6003;32314;48.748;9.656;2022-09-09T08:36:45;2.25;2.00;1.50
46591;PMS6003;32314;48.748;9.656;2022-09-09T08:39:32;2.00;1.75;1.75
46591;PMS6003;32314;48.748;9.656;2022-09-09T08:48:31;3.00;1.00;1.00
46591;PMS6003;32314;48.748;9.656;2022-09-09T08:51:32;1.00;1.00;1.00
46591;PMS6003;32314;48.748;9.656;2022-09-09T08:54:19;2.00;2.00;2.00
46591;PMS6003;32314;48.748;9.656;2022-09-09T08:57:05;1.25;1.25;1.25
46591;PMS6003;32314;48.748;9.656;2022-09-09T08:59:59;1.00;1.00;1.00
46591;PMS6003;32314;48.748;9.656;2022-09-09T09:02:48;4.00;2.00;2.00
46591;PMS6003;32314;48.748;9.656;2022-09-09T09:06:43;2.75;1.00;1.00
46591;PMS6003;32314;48.748;9.656;2022-09-09T09:12:00;1.75;1.75;1.75
46591;PMS6003;32314;48.748;9.656;2022-09-09T09:14:52;3.00;2.00;2.00
46591;PMS6003;32314;48.748;9.656;2022-09-09T09:17:40;2.50;2.50;2.50
46591;PMS6003;32314;48.748;9.656;2022-09-09T09:20:43;1.50;1.50;1.00
46591;PMS6003;32314;48.748;9.656;2022-09-09T09:23:39;1.25;1.25;1.00
46591;PMS6003;32314;48.748;9.656;2022-09-09T09:26:30;2.25;1.50;1.25
46591;PMS6003;32314;48.748;9.656;2022-09-09T09:29:19;2.00;2.00;2.00
46591;PMS6003;32314;48.748;9.656;2022-09-09T09:32:07;4.00;1.50;1.50
46591;PMS6003;32314;48.748;9.656;2022-09-09T09:34:58;2.00;2.00;2.00
46591;PMS6003;32314;48.748;9.656;2022-09-09T09:37:46;1.00;1.00;1.00
46591;PMS6003;32314;48.748;9.656;2022-09-09T09:40:33;2.00;2.00;2.00
46591;PMS6003;32314;48.748;9.656;2022-09-09T09:43:40;1.50;1.50;1.50
46591;PMS6003;32314;48.748;9.656;2022-09-09T09:46:32;1.00;1.00;1.00
46591;PMS6003;32314;48.748;9.656;2022-09-09T09:49:26;2.00;2.00;2.00
46591;PMS6003;32314;48.748;9.656;2022-09-09T09:52:12;2.00;2.00;2.00
46591;PMS6003;32314;48.748;9.656;2022-09-09T09:55:04;2.00;2.00;2.00
46591;PMS6003;32314;48.748;9.656;2022-09-09T09:57:52;2.00;2.00;2.00
46591;PMS6003;32314;48.748;9.656;2022-09-09T10:00:47;2.00;2.00;2.00
46591;PMS6003;32314;48.748;9.656;2022-09-09T10:03:35;2.25;2.25;2.00
46591;PMS6003;32314;48.748;9.656;2022-09-09T10:06:30;1.50;1.50;1.00
46591;PMS6003;32314;48.748;9.656;2022-09-09T10:09:26;0.25;0.25;0.25
46591;PMS6003;32314;48.748;9.656;2022-09-09T10:12:39;1.00;1.00;1.00
46591;PMS6003;32314;48.748;9.656;2022-09-09T10:18:53;1.00;1.00;1.00
46591;PMS6003;32314;48.748;9.656;2022-09-09T10:27:33;1.00;1.00;1.00
46591;PMS6003;32314;48.748;9.656;2022-09-09T10:30:24;0.50;0.50;0.50
46591;PMS6003;32314;48.748;9.656;2022-09-09T10:33:37;2.50;1.00;1.00
46591;PMS6003;32314;48.748;9.656;2022-09-09T10:36:27;2.00;0.00;0.00
46591;PMS6003;32314;48.748;9.656;2022-09-09T10:39:23;1.00;1.00;1.00
46591;PMS6003;32314;48.748;9.656;2022-09-09T10:42:29;0.50;0.50;0.00
46591;PMS6003;32314;48.748;9.656;2022-09-09T10:45:52;1.00;1.00;1.00
46591;PMS6003;32314;48.748;9.656;2022-09-09T10:54:44;0.00;0.00;0.00
46591;PMS6003;32314;48.748;9.656;2022-09-09T10:57:39;2.50;0.00;0.00
46591;PMS6003;32314;48.748;9.656;2022-09-09T11:00:39;0.00;0.00;0.00
46591;PMS6003;32314;48.748;9.656;2022-09-09T11:03:27;2.00;0.00;0.00
46591;PMS6003;32314;48.748;9.656;2022-09-09T11:06:19;0.00;0.00;0.00
46591;PMS6003;32314;48.748;9.656;2022-09-09T11:09:08;0.00;0.00;0.00
46591;PMS6003;32314;48.748;9.656;2022-09-09T11:12:02;0.50;0.00;0.00
46591;PMS6003;32314;48.748;9.656;2022-09-09T11:15:14;0.00;0.00;0.00
46591;PMS6003;32314;48.748;9.656;2022-09-09T11:18:02;1.25;0.00;0.00
46591;PMS6003;32314;48.748;9.656;2022-09-09T11:20:55;0.00;0.00;0.00
46591;PMS6003;32314;48.748;9.656;2022-09-09T11:23:47;0.00;0.00;0.00
46591;PMS6003;32314;48.748;9.656;2022-09-09T11:26:38;0.00;0.00;0.00
46591;PMS6003;32314;48.748;9.656;2022-09-09T11:35:46;0.00;0.00;0.00
46591;PMS6003;32314;48.748;9.656;2022-09-09T11:38:44;0.75;0.75;0.00
46591;PMS6003;32314;48.748;9.656;2022-09-09T11:41:34;1.75;0.00;0.00
46591;PMS6003;32314;48.748;9.656;2022-09-09T11:44:29;1.00;1.00;1.00
46591;PMS6003;32314;48.748;9.656;2022-09-09T11:47:21;1.50;0.00;0.00
46591;PMS6003;32314;48.748;9.656;2022-09-09T11:56:03;1.67;0.00;0.00
46591;PMS6003;32314;48.748;9.656;2022-09-09T12:01:49;0.00;0.00;0.00
46591;PMS6003;32314;48.748;9.656;2022-09-09T12:07:50;0.00;0.00;0.00
46591;PMS6003;32314;48.748;9.656;2022-09-09T12:10:39;0.00;0.00;0.00
46591;PMS6003;32314;48.748;9.656;2022-09-09T12:13:26;0.00;0.00;0.00
46591;PMS6003;32314;48.748;9.656;2022-09-09T12:16:27;0.00;0.00;0.00
46591;PMS6003;32314;48.748;9.656;2022-09-09T12:19:18;1.00;1.00;1.00
46591;PMS6003;32314;48.748;9.656;2022-09-09T12:25:23;1.00;1.00;1.00
46591;PMS6003;32314;48.748;9.656;2022-09-09T12:28:22;2.00;1.00;0.25
46591;PMS6003;32314;48.748;9.656;2022-09-09T12:34:16;0.50;0.00;0.00
46591;PMS6003;32314;48.748;9.656;2022-09-09T12:37:06;0.00;0.00;0.00
46591;PMS6003;32314;48.748;9.656;2022-09-09T12:40:01;1.25;0.00;0.00
46591;PMS6003;32314;48.748;9.656;2022-09-09T12:42:49;0.00;0.00;0.00
46591;PMS6003;32314;48.748;9.656;2022-09-09T12:45:35;1.50;1.00;0.50
46591;PMS6003;32314;48.748;9.656;2022-09-09T12:51:28;0.00;0.00;0.00
46591;PMS6003;32314;48.748;9.656;2022-09-09T12:54:18;0.00;0.00;0.00
46591;PMS6003;32314;48.748;9.656;2022-09-09T12:57:04;0.50;0.00;0.00
46591;PMS6003;32314;48.748;9.656;2022-09-09T12:59:51;0.00;0.00;0.00
46591;PMS6003;32314;48.748;9.656;2022-09-09T13:02:45;0.00;0.00;0.00
46591;PMS6003;32314;48.748;9.656;2022-09-09T13:05:38;0.00;0.00;0.00
46591;PMS6003;32314;48.748;9.656;2022-09-09T13:08:24;0.00;0.00;0.00
46591;PMS6003;32314;48.748;9.656;2022-09-09T13:17:24;0.75;0.00;0.00
46591;PMS6003;32314;48.748;9.656;2022-09-09T13:20:27;0.00;0.00;0.00
46591;PMS6003;32314;48.748;9.656;2022-09-09T13:23:13;0.75;0.00;0.00
46591;PMS6003;32314;48.748;9.656;2022-09-09T13:29:24;0.00;0.00;0.00
46591;PMS6003;32314;48.748;9.656;2022-09-09T13:32:25;0.00;0.00;0.00
46591;PMS6003;32314;48.748;9.656;2022-09-09T13:35:22;0.00;0.00;0.00
46591;PMS6003;32314;48.748;9.656;2022-09-09T13:38:22;0.00;0.00;0.00
46591;PMS6003;32314;48.748;9.656;2022-09-09T13:44:24;0.00;0.00;0.00
46591;PMS6003;32314;48.748;9.656;2022-09-09T13:47:27;1.00;0.00;0.00
46591;PMS6003;32314;48.748;9.656;2022-09-09T13:50:27;0.00;0.00;0.00
46591;PMS6003;32314;48.748;9.656;2022-09-09T13:53:37;0.00;0.00;0.00
46591;PMS6003;32314;48.748;9.656;2022-09-09T13:56:36;0.00;0.00;0.00
46591;PMS6003;32314;48.748;9.656;2022-09-09T13:59:52;0.00;0.00;0.00
46591;PMS6003;32314;48.748;9.656;2022-09-09T14:02:45;0.50;0.00;0.00
46591;PMS6003;32314;48.748;9.656;2022-09-09T14:05:43;0.00;0.00;0.00
46591;PMS6003;32314;48.748;9.656;2022-09-09T14:08:30;1.00;0.00;0.00
46591;PMS6003;32314;48.748;9.656;2022-09-09T14:11:22;0.75;0.00;0.00
46591;PMS6003;32314;48.748;9.656;2022-09-09T14:14:08;0.00;0.00;0.00
46591;PMS6003;32314;48.748;9.656;2022-09-09T14:16:54;0.00;0.00;0.00
46591;PMS6003;32314;48.748;9.656;2022-09-09T14:19:40;1.00;0.00;0.00
46591;PMS6003;32314;48.748;9.656;2022-09-09T14:22:26;0.00;0.00;0.00
46591;PMS6003;32314;48.748;9.656;2022-09-09T14:25:13;0.00;0.00;0.00
46591;PMS6003;32314;48.748;9.656;2022-09-09T14:27:59;0.00;0.00;0.00
46591;PMS6003;32314;48.748;9.656;2022-09-09T14:30:47;1.00;0.00;0.00
46591;PMS6003;32314;48.748;9.656;2022-09-09T14:33:33;0.00;0.00;0.00
46591;PMS6003;32314;48.748;9.656;2022-09-09T14:36:20;0.00;0.00;0.00
46591;PMS6003;32314;48.748;9.656;2022-09-09T14:39:06;0.00;0.00;0.00
46591;PMS6003;32314;48.748;9.656;2022-09-09T14:41:52;0.00;0.00;0.00
46591;PMS6003;32314;48.748;9.656;2022-09-09T14:44:38;0.00;0.00;0.00
46591;PMS6003;32314;48.748;9.656;2022-09-09T14:47:26;0.67;0.00;0.00
46591;PMS6003;32314;48.748;9.656;2022-09-09T14:50:11;1.00;0.00;0.00
46591;PMS6003;32314;48.748;9.656;2022-09-09T14:52:58;0.00;0.00;0.00
46591;PMS6003;32314;48.748;9.656;2022-09-09T14:55:44;0.00;0.00;0.00
46591;PMS6003;32314;48.748;9.656;2022-09-09T14:58:31;0.00;0.00;0.00
46591;PMS6003;32314;48.748;9.656;2022-09-09T15:01:18;0.00;0.00;0.00
46591;PMS6003;32314;48.748;9.656;2022-09-09T15:04:05;0.00;0.00;0.00
46591;PMS6003;32314;48.748;9.656;2022-09-09T15:06:52;0.00;0.00;0.00
46591;PMS6003;32314;48.748;9.656;2022-09-09T15:09:38;0.00;0.00;0.00
46591;PMS6003;32314;48.748;9.656;2022-09-09T15:12:24;0.00;0.00;0.00
46591;PMS6003;32314;48.748;9.656;2022-09-09T15:15:11;0.00;0.00;0.00
46591;PMS6003;32314;48.748;9.656;2022-09-09T15:17:58;0.00;0.00;0.00
46591;PMS6003;32314;48.748;9.656;2022-09-09T15:20:44;0.00;0.00;0.00
46591;PMS6003;32314;48.748;9.656;2022-09-09T15:23:32;0.00;0.00;0.00
46591;PMS6003;32314;48.748;9.656;2022-09-09T15:26:18;0.00;0.00;0.00
46591;PMS6003;32314;48.748;9.656;2022-09-09T15:29:06;0.00;0.00;0.00
46591;PMS6003;32314;48.748;9.656;2022-09-09T15:31:54;0.00;0.00;0.00
46591;PMS6003;32314;48.748;9.656;2022-09-09T15:34:41;0.00;0.00;0.00
46591;PMS6003;32314;48.748;9.656;2022-09-09T15:37:27;0.00;0.00;0.00
46591;PMS6003;32314;48.748;9.656;2022-09-09T15:40:13;1.00;0.00;0.00
46591;PMS6003;32314;48.748;9.656;2022-09-09T15:42:59;0.00;0.00;0.00
46591;PMS6003;32314;48.748;9.656;2022-09-09T15:45:46;0.00;0.00;0.00
46591;PMS6003;32314;48.748;9.656;2022-09-09T15:48:37;1.00;0.00;0.00
46591;PMS6003;32314;48.748;9.656;2022-09-09T15:51:25;0.00;0.00;0.00
46591;PMS6003;32314;48.748;9.656;2022-09-09T15:54:12;0.00;0.00;0.00
46591;PMS6003;32314;48.748;9.656;2022-09-09T15:57:00;1.00;0.00;0.00
46591;PMS6003;32314;48.748;9.656;2022-09-09T15:59:47;0.00;0.00;0.00
46591;PMS6003;32314;48.748;9.656;2022-09-09T16:02:33;0.00;0.00;0.00
46591;PMS6003;32314;48.748;9.656;2022-09-09T16:05:19;0.00;0.00;0.00
46591;PMS6003;32314;48.748;9.656;2022-09-09T16:08:06;0.25;0.00;0.00
46591;PMS6003;32314;48.748;9.656;2022-09-09T16:10:52;0.00;0.00;0.00
46591;PMS6003;32314;48.748;9.656;2022-09-09T16:13:39;0.00;0.00;0.00
46591;PMS6003;32314;48.748;9.656;2022-09-09T16:16:25;0.00;0.00;0.00
46591;PMS6003;32314;48.748;9.656;2022-09-09T16:19:14;1.00;0.00;0.00
46591;PMS6003;32314;48.748;9.656;2022-09-09T16:22:00;0.00;0.00;0.00
46591;PMS6003;32314;48.748;9.656;2022-09-09T16:24:46;0.00;0.00;0.00
46591;PMS6003;32314;48.748;9.656;2022-09-09T16:27:32;0.00;0.00;0.00
46591;PMS6003;32314;48.748;9.656;2022-09-09T16:30:19;0.00;0.00;0.00
46591;PMS6003;32314;48.748;9.656;2022-09-09T16:33:07;0.00;0.00;0.00
46591;PMS6003;32314;48.748;9.656;2022-09-09T16:35:53;0.00;0.00;0.00
46591;PMS6003;32314;48.748;9.656;2022-09-09T16:38:40;0.25;0.00;0.00
46591;PMS6003;32314;48.748;9.656;2022-09-09T16:41:26;0.00;0.00;0.00
46591;PMS6003;32314;48.748;9.656;2022-09-09T16:44:14;0.50;0.00;0.00
46591;PMS6003;32314;48.748;9.656;2022-09-09T16:47:02;0.00;0.00;0.00
46591;PMS6003;32314;48.748;9.656;2022-09-09T16:49:49;0.00;0.00;0.00
46591;PMS6003;32314;48.748;9.656;2022-09-09T16:52:35;0.00;0.00;0.00
46591;PMS6003;32314;48.748;9.656;2022-09-09T16:55:21;1.00;0.00;0.00
46591;PMS6003;32314;48.748;9.656;2022-09-09T16:58:12;0.00;0.00;0.00
46591;PMS6003;32314;48.748;9.656;2022-09-09T17:00:58;0.00;0.00;0.00
46591;PMS6003;32314;48.748;9.656;2022-09-09T17:03:45;0.00;0.00;0.00
46591;PMS6003;32314;48.748;9.656;2022-09-09T17:06:31;0.50;0.00;0.00
46591;PMS6003;32314;48.748;9.656;2022-09-09T17:09:27;0.00;0.00;0.00
46591;PMS6003;32314;48.748;9.656;2022-09-09T17:12:14;0.25;0.00;0.00
46591;PMS6003;32314;48.748;9.656;2022-09-09T17:15:02;0.00;0.00;0.00
46591;PMS6003;32314;48.748;9.656;2022-09-09T17:17:49;0.00;0.00;0.00
46591;PMS6003;32314;48.748;9.656;2022-09-09T17:20:38;0.00;0.00;0.00
46591;PMS6003;32314;48.748;9.656;2022-09-09T17:23:25;1.00;0.00;0.00
46591;PMS6003;32314;48.748;9.656;2022-09-09T17:26:14;0.00;0.00;0.00
46591;PMS6003;32314;48.748;9.656;2022-09-09T17:29:02;0.00;0.00;0.00
46591;PMS6003;32314;48.748;9.656;2022-09-09T17:31:48;1.00;0.00;0.00
46591;PMS6003;32314;48.748;9.656;2022-09-09T17:34:35;0.00;0.00;0.00
46591;PMS6003;32314;48.748;9.656;2022-09-09T17:37:21;2.50;0.00;0.00
46591;PMS6003;32314;48.748;9.656;2022-09-09T17:40:08;0.00;0.00;0.00
46591;PMS6003;32314;48.748;9.656;2022-09-09T17:42:55;0.00;0.00;0.00
46591;PMS6003;32314;48.748;9.656;2022-09-09T17:45:41;0.00;0.00;0.00
46591;PMS6003;32314;48.748;9.656;2022-09-09T17:48:29;0.00;0.00;0.00
46591;PMS6003;32314;48.748;9.656;2022-09-09T17:51:16;0.00;0.00;0.00
46591;PMS6003;32314;48.748;9.656;2022-09-09T17:54:06;0.25;0.00;0.00
46591;PMS6003;32314;48.748;9.656;2022-09-09T17:56:54;1.00;0.00;0.00
46591;PMS6003;32314;48.748;9.656;2022-09-09T17:59:43;0.00;0.00;0.00
46591;PMS6003;32314;48.748;9.656;2022-09-09T18:02:29;0.00;0.00;0.00
46591;PMS6003;32314;48.748;9.656;2022-09-09T18:05:15;0.00;0.00;0.00
46591;PMS6003;32314;48.748;9.656;2022-09-09T18:08:03;0.00;0.00;0.00
46591;PMS6003;32314;48.748;9.656;2022-09-09T18:10:52;0.00;0.00;0.00
46591;PMS6003;32314;48.748;9.656;2022-09-09T18:13:40;0.00;0.00;0.00
46591;PMS6003;32314;48.748;9.656;2022-09-09T18:16:32;0.00;0.00;0.00
46591;PMS6003;32314;48.748;9.656;2022-09-09T18:19:22;0.00;0.00;0.00
46591;PMS6003;32314;48.748;9.656;2022-09-09T18:22:09;0.00;0.00;0.00
46591;PMS6003;32314;48.748;9.656;2022-09-09T18:24:55;1.00;0.00;0.00
46591;PMS6003;32314;48.748;9.656;2022-09-09T18:27:42;2.00;0.00;0.00
46591;PMS6003;32314;48.748;9.656;2022-09-09T18:30:28;1.50;1.00;0.00
46591;PMS6003;32314;48.748;9.656;2022-09-09T18:33:15;0.50;0.00;0.00
46591;PMS6003;32314;48.748;9.656;2022-09-09T18:36:09;0.00;0.00;0.00
46591;PMS6003;32314;48.748;9.656;2022-09-09T18:38:57;0.00;0.00;0.00
46591;PMS6003;32314;48.748;9.656;2022-09-09T18:41:48;1.50;1.50;1.00
46591;PMS6003;32314;48.748;9.656;2022-09-09T18:44:37;0.00;0.00;0.00
46591;PMS6003;32314;48.748;9.656;2022-09-09T18:47:23;2.00;1.00;1.00
46591;PMS6003;32314;48.748;9.656;2022-09-09T18:50:09;0.00;0.00;0.00
46591;PMS6003;32314;48.748;9.656;2022-09-09T18:52:55;1.25;1.25;1.25
46591;PMS6003;32314;48.748;9.656;2022-09-09T18:55:41;1.50;1.50;1.00
46591;PMS6003;32314;48.748;9.656;2022-09-09T18:58:28;1.25;1.25;1.25
46591;PMS6003;32314;48.748;9.656;2022-09-09T19:01:14;0.75;0.75;0.00
46591;PMS6003;32314;48.748;9.656;2022-09-09T19:04:01;1.00;1.00;1.00
46591;PMS6003;32314;48.748;9.656;2022-09-09T19:06:49;1.00;1.00;1.00
46591;PMS6003;32314;48.748;9.656;2022-09-09T19:09:42;1.00;1.00;1.00
46591;PMS6003;32314;48.748;9.656;2022-09-09T19:12:28;0.50;0.50;0.50
46591;PMS6003;32314;48.748;9.656;2022-09-09T19:15:15;0.00;0.00;0.00
46591;PMS6003;32314;48.748;9.656;2022-09-09T19:18:02;0.25;0.25;0.00
46591;PMS6003;32314;48.748;9.656;2022-09-09T19:20:48;1.00;1.00;1.00
46591;PMS6003;32314;48.748;9.656;2022-09-09T19:23:34;0.00;0.00;0.00
46591;PMS6003;32314;48.748;9.656;2022-09-09T19:26:20;0.75;0.75;0.50
46591;PMS6003;32314;48.748;9.656;2022-09-09T19:29:07;0.50;0.50;0.00